Time;durP1;ratioP1;P1;durP2;ratioP2;P2;SDS_P1;SDS_P2;PMS_P1;PMS_P2;Temp;Humidity;BMP_temperature;BMP_pressure;BME280_temperature;BME280_humidity;BME280_pressure;Samples;Min_cycle;Max_cycle;Signal;HPM_P1;HPM_P2
2022/01/10 00:00:54;;;;;;;6.72;3.88;;;1.90;96.20;;;;;;2080014;28;20079;-88
2022/01/10 00:01:56;;;;;;;5.75;3.08;;;1.90;96.20;;;;;;2094949;28;20075;-88
2022/01/10 00:02:59;;;;;;;8.07;3.40;;;1.90;96.20;;;;;;2094455;28;20028;-88
2022/01/10 00:03:59;;;;;;;6.60;3.42;;;1.90;96.20;;;;;;2095074;28;20040;-88
2022/01/10 00:05:00;;;;;;;7.35;3.20;;;1.90;96.20;;;;;;2091050;28;20446;-88
2022/01/10 00:06:01;;;;;;;7.15;3.30;;;1.90;96.20;;;;;;2099815;28;20136;-85
2022/01/10 00:07:02;;;;;;;6.97;3.58;;;1.90;96.20;;;;;;2100487;28;20565;-84
2022/01/10 00:08:04;;;;;;;6.40;3.63;;;1.90;96.20;;;;;;2106456;28;20036;-84
2022/01/10 00:09:05;;;;;;;8.80;3.67;;;1.90;96.20;;;;;;2099195;28;20048;-87
2022/01/10 00:10:07;;;;;;;7.40;3.47;;;1.90;96.20;;;;;;2105313;28;20040;-84
2022/01/10 00:11:07;;;;;;;7.40;3.80;;;1.90;96.20;;;;;;2097998;28;20037;-84
2022/01/10 00:12:08;;;;;;;8.23;3.67;;;1.90;96.20;;;;;;2092561;28;20101;-84
2022/01/10 00:13:09;;;;;;;8.10;3.88;;;1.90;96.20;;;;;;2098689;28;20041;-87
2022/01/10 00:14:10;;;;;;;8.20;3.67;;;1.80;96.20;;;;;;2094359;28;20070;-88
2022/01/10 00:15:12;;;;;;;7.70;3.50;;;1.80;96.20;;;;;;2081011;28;20033;-87
2022/01/10 00:16:13;;;;;;;8.00;3.72;;;1.80;96.20;;;;;;2074874;28;20048;-88
2022/01/10 00:17:14;;;;;;;9.40;3.45;;;1.80;96.20;;;;;;2078179;28;20038;-88
2022/01/10 00:18:14;;;;;;;7.32;3.42;;;1.80;96.20;;;;;;2075957;28;20392;-86
2022/01/10 00:19:15;;;;;;;9.18;3.92;;;1.80;96.20;;;;;;2075150;28;20496;-88
2022/01/10 00:20:17;;;;;;;6.00;3.67;;;1.80;96.20;;;;;;2091638;28;20493;-88
2022/01/10 00:21:18;;;;;;;6.50;3.30;;;1.80;96.30;;;;;;2106592;28;20039;-88
2022/01/10 00:22:20;;;;;;;6.82;4.00;;;1.80;96.30;;;;;;2089929;28;20203;-88
2022/01/10 00:23:20;;;;;;;6.28;3.65;;;1.80;96.30;;;;;;2082897;28;20065;-88
2022/01/10 00:24:21;;;;;;;8.93;4.43;;;1.80;96.30;;;;;;2098059;28;20138;-87
2022/01/10 00:25:23;;;;;;;6.13;3.72;;;1.80;96.30;;;;;;2094960;28;20060;-88
2022/01/10 00:26:24;;;;;;;6.72;3.40;;;1.80;96.30;;;;;;2091297;28;20033;-88
2022/01/10 00:27:24;;;;;;;7.00;3.70;;;1.80;96.50;;;;;;2084461;28;20033;-88
2022/01/10 00:28:25;;;;;;;6.55;3.40;;;1.80;96.30;;;;;;2079764;28;20083;-88
2022/01/10 00:29:26;;;;;;;8.35;3.35;;;1.80;96.30;;;;;;2066365;28;20508;-88
2022/01/10 00:30:26;;;;;;;8.27;3.90;;;1.80;96.30;;;;;;2066360;28;20030;-88
2022/01/10 00:31:27;;;;;;;12.98;4.00;;;1.80;96.30;;;;;;2078082;28;20514;-88
2022/01/10 00:32:28;;;;;;;6.78;3.63;;;1.80;96.30;;;;;;2087439;28;20049;-88
2022/01/10 00:33:29;;;;;;;7.38;3.38;;;1.80;96.20;;;;;;2082527;28;20076;-88
2022/01/10 00:34:29;;;;;;;7.60;3.92;;;1.80;96.20;;;;;;2082442;28;20567;-88
2022/01/10 00:35:30;;;;;;;7.38;3.47;;;1.80;96.20;;;;;;2095481;28;20037;-88
2022/01/10 00:36:31;;;;;;;8.38;3.83;;;1.80;96.50;;;;;;2091933;28;20068;-88
2022/01/10 00:37:33;;;;;;;8.68;4.07;;;1.80;96.20;;;;;;2090684;28;20044;-88
2022/01/10 00:38:34;;;;;;;7.05;3.40;;;1.80;96.20;;;;;;2083171;28;20034;-88
2022/01/10 00:39:34;;;;;;;7.70;3.78;;;1.80;96.20;;;;;;2079053;28;20044;-87
2022/01/10 00:40:35;;;;;;;6.90;3.92;;;1.80;96.20;;;;;;2087082;28;20056;-88
2022/01/10 00:41:36;;;;;;;7.35;3.72;;;1.80;96.20;;;;;;2088551;28;20067;-87
2022/01/10 00:42:38;;;;;;;7.30;4.10;;;1.80;96.20;;;;;;2095145;28;20077;-87
2022/01/10 00:43:45;;;;;;;7.97;3.90;;;1.80;96.20;;;;;;2087658;28;20045;-88
2022/01/10 00:44:51;;;;;;;8.27;4.38;;;1.80;96.20;;;;;;2082227;28;20415;-88
2022/01/10 00:45:51;;;;;;;7.22;3.85;;;1.80;96.20;;;;;;2085273;28;20069;-88
2022/01/10 00:46:53;;;;;;;6.93;3.80;;;1.80;96.20;;;;;;2076757;28;20057;-88
2022/01/10 00:47:55;;;;;;;8.82;4.05;;;1.80;96.20;;;;;;2090885;28;20060;-88
2022/01/10 00:48:56;;;;;;;7.45;3.90;;;1.80;96.20;;;;;;2086825;28;20037;-88
2022/01/10 00:49:57;;;;;;;7.82;3.90;;;1.80;96.20;;;;;;2082327;28;20029;-88
2022/01/10 00:50:57;;;;;;;8.80;4.05;;;1.80;96.20;;;;;;2080895;28;20041;-88
2022/01/10 00:51:58;;;;;;;7.28;4.13;;;1.70;96.20;;;;;;2090523;28;20061;-88
2022/01/10 00:52:59;;;;;;;9.65;3.72;;;1.80;96.20;;;;;;2091303;28;20132;-88
2022/01/10 00:54:00;;;;;;;8.43;4.22;;;1.70;96.20;;;;;;2091242;28;20495;-88
2022/01/10 00:55:00;;;;;;;7.43;3.65;;;1.70;96.20;;;;;;2099907;28;20039;-89
2022/01/10 00:56:01;;;;;;;6.03;3.60;;;1.70;96.10;;;;;;2099299;28;20052;-88
2022/01/10 00:57:02;;;;;;;6.80;4.32;;;1.70;96.20;;;;;;2090126;28;20513;-88
2022/01/10 00:58:03;;;;;;;8.65;3.75;;;1.70;96.20;;;;;;2091308;28;20491;-88
2022/01/10 00:59:03;;;;;;;7.43;4.25;;;1.70;96.20;;;;;;2090557;28;20041;-88
2022/01/10 01:00:07;;;;;;;7.97;3.45;;;1.70;96.20;;;;;;2092791;28;20073;-88
2022/01/10 01:01:07;;;;;;;8.50;3.92;;;1.70;96.20;;;;;;2098135;28;20024;-88
2022/01/10 01:02:08;;;;;;;8.10;4.05;;;1.70;96.20;;;;;;2075048;28;20124;-88
2022/01/10 01:03:09;;;;;;;8.68;4.22;;;1.70;96.20;;;;;;2090824;28;20136;-88
2022/01/10 01:04:10;;;;;;;6.03;3.65;;;1.60;96.20;;;;;;2090653;28;20032;-88
2022/01/10 01:05:16;;;;;;;8.43;3.78;;;1.70;96.20;;;;;;2090374;28;20421;-87
2022/01/10 01:06:17;;;;;;;6.85;4.15;;;1.70;96.20;;;;;;2097862;28;20032;-87
2022/01/10 01:07:17;;;;;;;7.95;4.03;;;1.70;96.20;;;;;;2090385;28;21017;-88
2022/01/10 01:08:18;;;;;;;8.85;3.90;;;1.70;96.20;;;;;;2074323;28;20038;-88
2022/01/10 01:09:24;;;;;;;7.88;3.85;;;1.70;96.20;;;;;;2089590;28;20040;-88
2022/01/10 01:13:54;;;;;;;5.63;3.40;;;1.60;96.20;;;;;;2088526;28;20503;-88
2022/01/10 01:14:57;;;;;;;6.50;3.72;;;1.70;96.20;;;;;;2095224;28;20037;-88
2022/01/10 01:25:05;;;;;;;7.95;3.85;;;1.60;96.20;;;;;;2091021;28;20112;-88
2022/01/10 01:26:08;;;;;;;5.72;3.60;;;1.60;96.20;;;;;;2094305;28;20482;-88
2022/01/10 01:27:09;;;;;;;6.53;3.60;;;1.60;96.20;;;;;;2093883;28;20048;-88
2022/01/10 01:28:10;;;;;;;8.88;4.18;;;1.60;96.20;;;;;;2088109;28;20036;-88
2022/01/10 01:29:14;;;;;;;6.90;4.10;;;1.60;96.20;;;;;;2072251;28;20484;-88
2022/01/10 01:30:14;;;;;;;7.03;3.85;;;1.60;96.20;;;;;;2090767;28;20033;-88
2022/01/10 01:31:15;;;;;;;7.88;4.10;;;1.60;96.20;;;;;;2084141;28;20037;-88
2022/01/10 01:32:16;;;;;;;6.20;4.20;;;1.60;96.20;;;;;;2064779;28;20124;-87
2022/01/10 01:33:17;;;;;;;8.73;4.45;;;1.60;96.20;;;;;;2073817;28;20193;-88
2022/01/10 01:34:20;;;;;;;6.85;3.65;;;1.60;96.20;;;;;;2073432;28;20029;-88
2022/01/10 01:35:24;;;;;;;8.02;4.18;;;1.60;96.20;;;;;;2073835;28;20037;-87
2022/01/10 01:36:26;;;;;;;6.30;3.72;;;1.60;96.20;;;;;;2082632;28;20025;-88
2022/01/10 01:37:27;;;;;;;7.55;4.03;;;1.60;96.20;;;;;;2094927;28;20091;-88
2022/01/10 01:38:28;;;;;;;7.15;4.22;;;1.50;96.20;;;;;;2094409;28;20037;-88
2022/01/10 01:39:30;;;;;;;6.68;4.15;;;1.50;96.20;;;;;;2094048;28;20033;-86
2022/01/10 01:40:33;;;;;;;7.85;4.07;;;1.50;96.20;;;;;;2082439;28;20434;-87
2022/01/10 01:42:38;;;;;;;8.23;4.47;;;1.50;96.20;;;;;;2097064;28;20024;-88
2022/01/10 01:43:40;;;;;;;8.18;3.90;;;1.50;96.20;;;;;;2097839;28;20070;-88
2022/01/10 01:44:41;;;;;;;8.13;4.32;;;1.50;96.20;;;;;;2098473;28;20071;-88
2022/01/10 01:45:44;;;;;;;7.40;4.10;;;1.50;96.20;;;;;;2091689;28;20490;-88
2022/01/10 01:46:45;;;;;;;8.75;4.40;;;1.40;96.20;;;;;;2092260;28;20399;-87
2022/01/10 01:47:46;;;;;;;7.68;4.43;;;1.50;96.30;;;;;;2088658;28;20049;-88
2022/01/10 01:48:47;;;;;;;8.18;4.15;;;1.50;96.30;;;;;;2081533;28;20116;-88
2022/01/10 01:49:47;;;;;;;8.82;4.38;;;1.40;96.30;;;;;;2081841;28;20369;-88
2022/01/10 01:50:48;;;;;;;9.40;4.65;;;1.40;96.30;;;;;;2073471;28;20129;-87
2022/01/10 01:51:49;;;;;;;7.40;4.28;;;1.50;96.30;;;;;;2065653;28;20054;-87
2022/01/10 01:52:49;;;;;;;10.05;4.38;;;1.40;96.30;;;;;;2087912;28;20088;-88
2022/01/10 01:53:51;;;;;;;7.82;4.13;;;1.40;96.30;;;;;;2089526;28;20037;-87
2022/01/10 01:54:52;;;;;;;8.45;4.38;;;1.40;96.30;;;;;;2097798;28;20080;-88
2022/01/10 01:55:53;;;;;;;10.02;4.65;;;1.50;96.30;;;;;;2089987;28;20087;-87
2022/01/10 01:56:53;;;;;;;8.40;4.38;;;1.40;96.30;;;;;;2074945;28;20544;-87
2022/01/10 01:57:54;;;;;;;7.60;4.40;;;1.40;96.30;;;;;;2073759;28;20038;-88
2022/01/10 01:58:56;;;;;;;10.52;4.85;;;1.40;96.30;;;;;;2065686;28;20161;-87
2022/01/10 01:59:58;;;;;;;7.75;4.65;;;1.40;96.30;;;;;;2082992;28;20033;-87
2022/01/10 02:00:59;;;;;;;7.63;4.65;;;1.40;96.40;;;;;;2081819;28;20488;-88
2022/01/10 02:02:00;;;;;;;7.28;4.38;;;1.40;96.40;;;;;;2074757;28;20038;-88
2022/01/10 02:03:01;;;;;;;8.02;4.78;;;1.40;96.40;;;;;;2082737;28;20091;-88
2022/01/10 02:04:02;;;;;;;7.93;4.70;;;1.40;96.40;;;;;;2077749;28;20154;-87
2022/01/10 02:05:03;;;;;;;8.23;4.70;;;1.40;96.40;;;;;;2086576;28;20029;-88
2022/01/10 02:06:05;;;;;;;8.60;4.55;;;1.40;96.40;;;;;;2089351;28;20570;-88
2022/01/10 02:07:06;;;;;;;7.68;4.50;;;1.40;96.40;;;;;;2088667;28;20069;-87
2022/01/10 02:08:09;;;;;;;10.20;4.97;;;1.40;96.40;;;;;;2098353;28;20037;-85
2022/01/10 02:09:14;;;;;;;7.50;4.68;;;1.40;96.40;;;;;;2098596;28;20057;-84
2022/01/10 02:10:15;;;;;;;8.05;4.50;;;1.40;96.40;;;;;;2090155;28;20089;-85
2022/01/10 02:11:15;;;;;;;8.40;4.43;;;1.40;96.40;;;;;;2074853;28;20111;-85
2022/01/10 02:12:16;;;;;;;8.48;4.57;;;1.40;96.40;;;;;;2091338;28;20034;-84
2022/01/10 02:13:17;;;;;;;9.25;5.13;;;1.40;96.40;;;;;;2098949;28;20043;-84
2022/01/10 02:14:18;;;;;;;8.20;4.68;;;1.40;96.40;;;;;;2090481;28;20040;-84
2022/01/10 02:15:32;;;;;;;9.70;4.60;;;1.40;96.40;;;;;;2076087;28;20080;-87
2022/01/10 02:16:42;;;;;;;9.88;5.43;;;1.40;96.50;;;;;;2085735;28;20037;-88
2022/01/10 02:17:48;;;;;;;7.85;4.97;;;1.40;96.40;;;;;;2096816;28;20033;-88
2022/01/10 02:18:49;;;;;;;7.95;4.60;;;1.40;96.40;;;;;;2097981;28;20434;-87
2022/01/10 02:19:57;;;;;;;9.10;5.10;;;1.40;96.40;;;;;;2093303;28;20123;-87
2022/01/10 02:21:00;;;;;;;9.13;4.85;;;1.40;96.40;;;;;;2100312;28;20135;-87
2022/01/10 02:22:01;;;;;;;7.93;5.00;;;1.40;96.40;;;;;;2092398;28;20491;-88
2022/01/10 02:23:02;;;;;;;7.47;4.32;;;1.40;96.40;;;;;;2086485;28;20052;-88
2022/01/10 02:24:05;;;;;;;8.15;5.10;;;1.40;96.40;;;;;;2081927;28;20041;-88
2022/01/10 02:25:06;;;;;;;8.48;5.22;;;1.30;96.40;;;;;;2094068;28;20040;-88
2022/01/10 02:26:07;;;;;;;8.90;5.20;;;1.30;96.40;;;;;;2089954;28;20037;-88
2022/01/10 02:27:07;;;;;;;8.77;5.15;;;1.30;96.40;;;;;;2073479;28;20073;-88
2022/01/10 02:28:08;;;;;;;8.85;5.30;;;1.30;96.40;;;;;;2081853;28;20119;-87
2022/01/10 02:29:10;;;;;;;8.52;5.55;;;1.30;96.40;;;;;;2090312;28;20111;-87
2022/01/10 02:30:12;;;;;;;9.57;5.93;;;1.30;96.40;;;;;;2089889;28;20036;-88
2022/01/10 02:31:14;;;;;;;8.85;5.30;;;1.30;96.40;;;;;;2088839;28;20041;-88
2022/01/10 02:32:15;;;;;;;8.48;5.43;;;1.30;96.40;;;;;;2098143;28;20090;-88
2022/01/10 02:33:16;;;;;;;8.48;5.07;;;1.30;96.40;;;;;;2090218;28;20037;-88
2022/01/10 02:34:19;;;;;;;9.75;5.90;;;1.30;96.40;;;;;;2081631;28;20084;-87
2022/01/10 02:35:27;;;;;;;8.85;5.40;;;1.30;96.40;;;;;;2089803;28;20154;-87
2022/01/10 02:36:28;;;;;;;8.73;5.40;;;1.30;96.40;;;;;;2092814;28;20041;-87
2022/01/10 02:37:36;;;;;;;9.40;5.50;;;1.30;96.40;;;;;;2097936;28;20038;-87
2022/01/10 02:38:37;;;;;;;8.70;5.10;;;1.30;96.40;;;;;;2096049;28;20047;-86
2022/01/10 02:39:37;;;;;;;9.30;5.32;;;1.30;96.40;;;;;;2093803;28;20040;-86
2022/01/10 02:40:38;;;;;;;9.63;5.63;;;1.30;96.40;;;;;;2092660;28;20037;-87
2022/01/10 02:41:42;;;;;;;8.90;5.25;;;1.30;96.40;;;;;;2090103;28;20120;-87
2022/01/10 02:42:42;;;;;;;8.70;5.43;;;1.30;96.40;;;;;;2097745;28;20037;-86
2022/01/10 02:43:43;;;;;;;9.48;5.57;;;1.30;96.40;;;;;;2096328;28;20395;-87
2022/01/10 02:44:44;;;;;;;8.60;5.50;;;1.30;96.40;;;;;;2089398;28;20045;-87
2022/01/10 02:45:45;;;;;;;8.40;5.03;;;1.30;96.40;;;;;;2080760;28;20025;-86
2022/01/10 02:46:46;;;;;;;10.68;5.65;;;1.30;96.50;;;;;;2085567;28;20129;-88
2022/01/10 02:47:48;;;;;;;9.05;5.32;;;1.20;96.40;;;;;;2091811;28;20502;-86
2022/01/10 02:48:49;;;;;;;9.38;5.60;;;1.20;96.50;;;;;;2091828;28;20032;-86
2022/01/10 02:49:49;;;;;;;9.25;5.55;;;1.30;96.50;;;;;;2089015;28;20029;-86
2022/01/10 02:50:50;;;;;;;9.85;6.50;;;1.30;96.50;;;;;;2090799;28;20825;-86
2022/01/10 02:51:53;;;;;;;9.70;5.97;;;1.30;96.50;;;;;;2092763;28;20450;-86
2022/01/10 02:52:53;;;;;;;8.82;5.95;;;1.30;96.50;;;;;;2092782;28;20073;-86
2022/01/10 02:53:54;;;;;;;10.07;6.03;;;1.30;96.40;;;;;;2093806;28;20617;-87
2022/01/10 02:54:57;;;;;;;10.25;5.82;;;1.30;96.40;;;;;;2092067;28;20033;-87
2022/01/10 02:55:58;;;;;;;8.98;5.72;;;1.30;96.40;;;;;;2074558;28;20129;-86
2022/01/10 02:56:58;;;;;;;11.90;6.18;;;1.30;96.40;;;;;;2078762;28;20666;-87
2022/01/10 02:57:59;;;;;;;8.90;6.10;;;1.30;96.40;;;;;;2076911;28;20132;-88
2022/01/10 02:58:59;;;;;;;11.05;6.20;;;1.30;96.30;;;;;;2093695;28;20028;-87
2022/01/10 03:00:05;;;;;;;11.05;6.43;;;1.30;96.30;;;;;;2095876;28;20043;-87
2022/01/10 03:01:06;;;;;;;9.52;6.28;;;1.30;96.30;;;;;;2090376;28;20048;-87
2022/01/10 03:02:08;;;;;;;9.75;6.18;;;1.30;96.30;;;;;;2071055;28;20042;-87
2022/01/10 03:03:09;;;;;;;9.50;6.57;;;1.30;96.30;;;;;;2078799;28;20034;-87
2022/01/10 03:04:10;;;;;;;9.60;6.38;;;1.30;96.30;;;;;;2097955;28;20064;-87
2022/01/10 03:05:11;;;;;;;10.48;6.57;;;1.30;96.30;;;;;;2090873;28;20095;-87
2022/01/10 03:06:12;;;;;;;11.15;6.80;;;1.30;96.30;;;;;;2092555;28;20044;-87
2022/01/10 03:07:17;;;;;;;9.35;6.20;;;1.40;96.30;;;;;;2089474;28;20494;-87
2022/01/10 03:08:18;;;;;;;9.35;6.20;;;1.30;96.30;;;;;;2090141;28;20033;-85
2022/01/10 03:09:18;;;;;;;11.65;7.05;;;1.40;96.30;;;;;;2089668;28;20029;-87
2022/01/10 03:10:19;;;;;;;10.25;6.95;;;1.30;96.30;;;;;;2089075;28;20065;-87
2022/01/10 03:11:20;;;;;;;12.75;7.40;;;1.40;96.30;;;;;;2089589;28;20457;-87
2022/01/10 03:12:21;;;;;;;9.95;6.80;;;1.30;96.20;;;;;;2073087;28;20052;-87
2022/01/10 03:13:22;;;;;;;10.60;6.85;;;1.40;96.30;;;;;;2072988;28;20077;-87
2022/01/10 03:14:22;;;;;;;11.75;7.20;;;1.40;96.30;;;;;;2096949;28;20067;-87
2022/01/10 03:15:23;;;;;;;13.73;7.70;;;1.40;96.30;;;;;;2081299;28;20103;-88
2022/01/10 03:16:24;;;;;;;13.52;7.40;;;1.30;96.30;;;;;;2089612;28;20064;-88
2022/01/10 03:17:25;;;;;;;11.98;7.07;;;1.30;96.30;;;;;;2097951;28;20036;-87
2022/01/10 03:18:26;;;;;;;12.23;7.47;;;1.30;96.30;;;;;;2098700;28;20127;-88
2022/01/10 03:19:26;;;;;;;11.38;7.80;;;1.40;96.30;;;;;;2089491;28;20463;-88
2022/01/10 03:20:27;;;;;;;11.35;7.20;;;1.40;96.30;;;;;;2081880;28;20132;-87
2022/01/10 03:21:28;;;;;;;12.02;7.47;;;1.40;96.30;;;;;;2079420;28;20029;-87
2022/01/10 03:22:28;;;;;;;12.25;7.60;;;1.40;96.30;;;;;;2089421;28;20037;-88
2022/01/10 03:23:29;;;;;;;11.13;7.40;;;1.40;96.30;;;;;;2095451;28;20052;-88
2022/01/10 03:24:30;;;;;;;10.93;7.25;;;1.40;96.30;;;;;;2080244;28;20033;-88
2022/01/10 03:25:30;;;;;;;9.75;6.93;;;1.40;96.30;;;;;;2081268;28;20140;-88
2022/01/10 03:26:32;;;;;;;11.57;6.65;;;1.40;96.30;;;;;;2097557;28;20124;-88
2022/01/10 03:27:32;;;;;;;11.52;7.18;;;1.40;96.20;;;;;;2089319;28;20048;-88
2022/01/10 03:28:33;;;;;;;10.38;7.20;;;1.40;96.30;;;;;;2077801;28;20037;-87
2022/01/10 03:29:34;;;;;;;13.20;7.30;;;1.40;96.30;;;;;;2081204;28;20041;-88
2022/01/10 03:30:35;;;;;;;11.23;7.40;;;1.40;96.30;;;;;;2088495;28;20044;-88
2022/01/10 03:31:36;;;;;;;11.63;7.50;;;1.40;96.30;;;;;;2081476;28;20056;-88
2022/01/10 03:32:37;;;;;;;11.43;6.97;;;1.40;96.30;;;;;;2093798;28;20514;-88
2022/01/10 03:33:38;;;;;;;11.18;7.50;;;1.40;96.30;;;;;;2089944;28;20041;-88
2022/01/10 03:34:39;;;;;;;11.82;7.70;;;1.40;96.30;;;;;;2089365;28;20037;-87
2022/01/10 03:35:40;;;;;;;9.50;6.97;;;1.40;96.30;;;;;;2086058;28;20029;-87
2022/01/10 03:36:41;;;;;;;12.57;7.82;;;1.40;96.30;;;;;;2092327;28;20104;-88
2022/01/10 03:37:42;;;;;;;10.68;6.97;;;1.30;96.30;;;;;;2091983;28;20499;-88
2022/01/10 03:38:43;;;;;;;10.63;7.60;;;1.30;96.30;;;;;;2092257;28;20032;-88
2022/01/10 03:39:43;;;;;;;12.90;7.15;;;1.30;96.30;;;;;;2073013;28;20038;-88
2022/01/10 03:40:44;;;;;;;13.80;7.20;;;1.30;96.30;;;;;;2064718;28;20034;-88
2022/01/10 03:41:45;;;;;;;11.77;7.53;;;1.30;96.30;;;;;;2089419;28;20574;-88
2022/01/10 03:42:45;;;;;;;11.65;7.40;;;1.40;96.30;;;;;;2091617;28;20051;-88
2022/01/10 03:43:46;;;;;;;12.05;7.60;;;1.40;96.40;;;;;;2089368;28;20033;-88
2022/01/10 03:44:47;;;;;;;12.05;7.32;;;1.40;96.30;;;;;;2081346;28;20041;-88
2022/01/10 03:45:47;;;;;;;10.90;6.95;;;1.40;96.30;;;;;;2089345;28;20036;-88
2022/01/10 03:46:48;;;;;;;11.63;7.68;;;1.40;96.30;;;;;;2090103;28;20395;-87
2022/01/10 03:47:49;;;;;;;11.88;7.35;;;1.40;96.30;;;;;;2093045;28;20415;-87
2022/01/10 03:48:49;;;;;;;11.40;7.30;;;1.40;96.30;;;;;;2080933;28;20068;-87
2022/01/10 03:49:50;;;;;;;11.82;7.68;;;1.40;96.30;;;;;;2087943;28;20021;-86
2022/01/10 03:50:51;;;;;;;11.75;7.65;;;1.40;96.30;;;;;;2087337;28;20139;-87
2022/01/10 03:51:51;;;;;;;10.40;7.28;;;1.40;96.30;;;;;;2072164;28;20073;-88
2022/01/10 03:52:52;;;;;;;10.63;7.88;;;1.40;96.30;;;;;;2072049;28;20427;-87
2022/01/10 03:53:53;;;;;;;12.10;7.55;;;1.40;96.30;;;;;;2088660;28;20679;-87
2022/01/10 03:54:54;;;;;;;10.57;7.22;;;1.40;96.30;;;;;;2089378;28;20088;-88
2022/01/10 03:55:55;;;;;;;11.68;7.93;;;1.40;96.30;;;;;;2080869;28;20515;-88
2022/01/10 03:56:55;;;;;;;11.30;7.50;;;1.40;96.30;;;;;;2089435;28;20128;-88
2022/01/10 03:57:56;;;;;;;12.82;7.82;;;1.40;96.30;;;;;;2086093;28;20029;-88
2022/01/10 03:58:57;;;;;;;11.65;7.47;;;1.40;96.40;;;;;;2092159;28;20037;-88
2022/01/10 03:59:58;;;;;;;14.90;8.02;;;1.40;96.30;;;;;;2092212;28;20442;-88
2022/01/10 04:01:01;;;;;;;11.18;7.53;;;1.40;96.30;;;;;;2072728;28;20045;-88
2022/01/10 04:02:03;;;;;;;11.80;7.40;;;1.40;96.30;;;;;;2082717;28;20041;-87
2022/01/10 04:03:06;;;;;;;12.95;8.48;;;1.40;96.30;;;;;;2090947;28;20303;-86
2022/01/10 04:04:07;;;;;;;13.00;8.23;;;1.40;96.30;;;;;;2082528;28;20438;-87
2022/01/10 04:05:08;;;;;;;11.70;7.90;;;1.40;96.30;;;;;;2089906;28;20427;-87
2022/01/10 04:06:09;;;;;;;11.90;7.70;;;1.40;96.30;;;;;;2089950;28;20033;-86
2022/01/10 04:07:12;;;;;;;10.82;7.90;;;1.40;96.30;;;;;;2092143;28;20041;-83
2022/01/10 04:08:12;;;;;;;12.48;7.95;;;1.40;96.30;;;;;;2099211;28;20041;-86
2022/01/10 04:09:13;;;;;;;13.65;8.13;;;1.40;96.30;;;;;;2083011;28;20105;-83
2022/01/10 04:10:14;;;;;;;12.52;7.65;;;1.40;96.30;;;;;;2082963;28;20041;-83
2022/01/10 04:11:15;;;;;;;11.88;8.10;;;1.40;96.30;;;;;;2083056;28;20018;-83
2022/01/10 04:12:16;;;;;;;11.30;8.00;;;1.40;96.30;;;;;;2091503;28;20053;-85
2022/01/10 04:13:16;;;;;;;11.50;7.95;;;1.40;96.30;;;;;;2099476;28;20044;-85
2022/01/10 04:14:17;;;;;;;12.02;7.97;;;1.40;96.60;;;;;;2099864;28;20060;-87
2022/01/10 04:15:18;;;;;;;12.23;8.38;;;1.40;96.30;;;;;;2089571;28;20423;-85
2022/01/10 04:16:18;;;;;;;11.48;7.82;;;1.40;96.30;;;;;;2089237;28;20451;-86
2022/01/10 04:17:19;;;;;;;12.07;7.70;;;1.40;96.30;;;;;;2088572;28;20044;-87
2022/01/10 04:18:21;;;;;;;12.30;7.95;;;1.40;96.30;;;;;;2089402;28;20040;-87
2022/01/10 04:19:22;;;;;;;13.55;8.23;;;1.40;96.30;;;;;;2085528;28;20427;-88
2022/01/10 04:20:24;;;;;;;12.98;7.85;;;1.40;96.30;;;;;;2088509;28;20029;-88
2022/01/10 04:21:24;;;;;;;13.77;8.30;;;1.40;96.30;;;;;;2081220;28;20146;-87
2022/01/10 04:22:25;;;;;;;11.48;8.10;;;1.50;96.30;;;;;;2084473;28;20038;-87
2022/01/10 04:23:25;;;;;;;11.02;7.70;;;1.40;96.30;;;;;;2091709;28;20120;-87
2022/01/10 04:24:26;;;;;;;12.05;8.30;;;1.50;96.30;;;;;;2080776;28;20029;-88
2022/01/10 04:25:27;;;;;;;11.82;8.35;;;1.50;96.30;;;;;;2081166;28;20041;-88
2022/01/10 04:26:27;;;;;;;11.07;8.05;;;1.50;96.30;;;;;;2082147;28;20079;-88
2022/01/10 04:27:32;;;;;;;12.82;8.18;;;1.50;96.30;;;;;;2056600;28;20408;-87
2022/01/10 04:28:32;;;;;;;11.07;8.00;;;1.50;96.30;;;;;;2077642;28;20041;-88
2022/01/10 04:29:33;;;;;;;11.10;8.48;;;1.50;96.30;;;;;;2082018;28;20038;-88
2022/01/10 04:30:34;;;;;;;13.82;8.75;;;1.50;96.20;;;;;;2082809;28;20096;-88
2022/01/10 04:31:35;;;;;;;13.13;8.45;;;1.50;96.20;;;;;;2092982;28;20036;-88
2022/01/10 04:32:36;;;;;;;14.65;8.68;;;1.60;96.20;;;;;;2075109;28;20133;-88
2022/01/10 04:33:38;;;;;;;12.02;7.90;;;1.60;96.20;;;;;;2082555;28;20045;-88
2022/01/10 04:34:39;;;;;;;12.77;8.50;;;1.60;96.20;;;;;;2090781;28;20029;-88
2022/01/10 04:35:40;;;;;;;12.90;8.48;;;1.60;96.20;;;;;;2090810;28;20463;-88
2022/01/10 04:36:40;;;;;;;14.65;9.07;;;1.60;96.20;;;;;;2082563;28;20076;-88
2022/01/10 04:37:41;;;;;;;13.15;8.65;;;1.70;96.20;;;;;;2067669;28;20060;-88
2022/01/10 04:38:42;;;;;;;13.43;8.80;;;1.60;96.20;;;;;;2080582;28;20483;-87
2022/01/10 04:39:43;;;;;;;11.95;8.43;;;1.60;96.20;;;;;;2098679;28;20079;-87
2022/01/10 04:40:43;;;;;;;15.00;8.55;;;1.70;96.20;;;;;;2082361;28;20053;-88
2022/01/10 04:41:44;;;;;;;12.90;8.60;;;1.70;96.20;;;;;;2077221;28;20045;-88
2022/01/10 04:42:45;;;;;;;13.82;8.52;;;1.70;96.20;;;;;;2082617;28;20034;-87
2022/01/10 04:43:46;;;;;;;11.90;8.75;;;1.70;96.20;;;;;;2074428;28;20041;-88
2022/01/10 04:44:49;;;;;;;14.48;8.82;;;1.70;96.20;;;;;;2082632;28;20037;-88
2022/01/10 04:45:49;;;;;;;12.82;9.32;;;1.70;96.40;;;;;;2082714;28;20040;-88
2022/01/10 04:46:51;;;;;;;13.55;8.93;;;1.70;96.20;;;;;;2082963;28;20104;-88
2022/01/10 04:47:52;;;;;;;12.60;8.38;;;1.80;96.20;;;;;;2094997;28;20079;-88
2022/01/10 04:48:52;;;;;;;11.13;7.70;;;1.80;96.20;;;;;;2097892;28;20450;-88
2022/01/10 04:50:07;;;;;;;13.38;8.88;;;1.70;96.10;;;;;;2099138;28;20039;-88
2022/01/10 04:51:12;;;;;;;14.20;9.20;;;1.70;96.10;;;;;;2082512;28;20029;-88
2022/01/10 04:52:13;;;;;;;13.85;8.90;;;1.70;96.10;;;;;;2086913;28;20033;-88
2022/01/10 04:53:14;;;;;;;14.95;9.30;;;1.80;96.10;;;;;;2097014;28;20103;-88
2022/01/10 04:54:16;;;;;;;12.25;8.52;;;1.70;96.10;;;;;;2099234;28;20034;-88
2022/01/10 04:55:18;;;;;;;12.55;8.43;;;1.70;96.10;;;;;;2096070;28;20037;-87
2022/01/10 04:56:19;;;;;;;11.52;8.63;;;1.80;96.20;;;;;;2088226;28;20434;-88
2022/01/10 04:57:20;;;;;;;12.68;8.38;;;1.80;96.20;;;;;;2090694;28;20064;-88
2022/01/10 04:58:22;;;;;;;11.48;8.40;;;1.80;96.20;;;;;;2091130;28;20064;-88
2022/01/10 04:59:23;;;;;;;11.43;8.50;;;1.70;96.10;;;;;;2074149;28;20042;-87
2022/01/10 05:00:25;;;;;;;14.25;8.85;;;1.80;96.20;;;;;;2077261;28;20045;-88
2022/01/10 05:01:25;;;;;;;12.80;8.60;;;1.80;96.20;;;;;;2082387;28;20030;-87
2022/01/10 05:02:26;;;;;;;14.15;8.55;;;1.80;96.20;;;;;;2074146;28;20128;-87
2022/01/10 05:03:27;;;;;;;13.70;8.80;;;1.80;96.20;;;;;;2066773;28;20093;-86
2022/01/10 05:04:27;;;;;;;12.60;8.45;;;1.80;96.10;;;;;;2086896;28;20033;-87
2022/01/10 05:05:28;;;;;;;14.48;8.85;;;1.80;96.10;;;;;;2082648;28;20030;-87
2022/01/10 05:06:29;;;;;;;11.65;8.48;;;1.80;96.10;;;;;;2078865;28;20034;-87
2022/01/10 05:07:30;;;;;;;12.43;8.65;;;1.80;96.10;;;;;;2095509;28;20127;-86
2022/01/10 05:08:31;;;;;;;12.02;8.90;;;1.90;96.10;;;;;;2109203;28;20063;-87
2022/01/10 05:09:32;;;;;;;14.63;9.48;;;1.80;96.10;;;;;;2090567;28;20057;-87
2022/01/10 05:10:32;;;;;;;13.55;8.60;;;1.90;96.10;;;;;;2090518;28;20083;-87
2022/01/10 05:11:35;;;;;;;11.98;8.32;;;1.90;96.10;;;;;;2094820;28;20047;-86
2022/01/10 05:12:36;;;;;;;12.85;8.93;;;1.90;96.20;;;;;;2078768;28;20053;-86
2022/01/10 05:13:37;;;;;;;14.88;8.73;;;1.90;96.40;;;;;;2079598;28;20038;-87
2022/01/10 05:14:38;;;;;;;11.95;8.25;;;1.90;96.20;;;;;;2088649;28;20072;-86
2022/01/10 05:15:38;;;;;;;12.60;8.65;;;1.90;96.20;;;;;;2091475;28;20087;-87
2022/01/10 05:16:40;;;;;;;12.70;8.55;;;1.90;96.20;;;;;;2083490;28;20065;-87
2022/01/10 05:17:43;;;;;;;12.93;8.30;;;1.90;96.20;;;;;;2087744;28;20072;-87
2022/01/10 05:18:44;;;;;;;12.35;8.32;;;1.90;96.20;;;;;;2090507;28;20049;-87
2022/01/10 05:19:44;;;;;;;11.60;8.65;;;1.90;96.20;;;;;;2094030;28;20039;-87
2022/01/10 05:20:45;;;;;;;11.98;8.57;;;1.90;96.20;;;;;;2093228;28;20398;-87
2022/01/10 05:21:46;;;;;;;12.52;8.60;;;1.90;96.10;;;;;;2090448;28;20033;-87
2022/01/10 05:22:47;;;;;;;12.68;8.23;;;1.90;96.40;;;;;;2089856;28;20033;-87
2022/01/10 05:23:47;;;;;;;13.07;8.88;;;1.90;96.10;;;;;;2082257;28;20034;-86
2022/01/10 05:24:48;;;;;;;12.75;8.60;;;1.90;96.20;;;;;;2080593;28;20036;-88
2022/01/10 05:25:49;;;;;;;12.70;9.30;;;1.90;96.10;;;;;;2089610;28;20041;-88
2022/01/10 05:26:49;;;;;;;13.65;8.90;;;2.00;96.20;;;;;;2098431;28;20090;-87
2022/01/10 05:27:50;;;;;;;12.75;8.95;;;2.00;96.10;;;;;;2082144;28;20060;-88
2022/01/10 05:28:59;;;;;;;11.27;8.50;;;2.00;96.20;;;;;;2081833;28;20092;-86
2022/01/10 05:30:00;;;;;;;12.20;8.90;;;2.00;96.20;;;;;;2084328;28;20439;-87
2022/01/10 05:31:01;;;;;;;13.40;8.57;;;2.00;96.10;;;;;;2081631;28;20042;-88
2022/01/10 05:32:02;;;;;;;11.88;8.65;;;2.00;96.20;;;;;;2081322;28;20038;-88
2022/01/10 05:33:04;;;;;;;13.07;9.57;;;2.00;96.10;;;;;;2085547;28;20410;-87
2022/01/10 05:34:04;;;;;;;11.90;8.40;;;2.00;96.10;;;;;;2074167;28;20445;-88
2022/01/10 05:35:05;;;;;;;11.88;8.05;;;2.00;96.10;;;;;;2079594;28;20046;-88
2022/01/10 05:36:06;;;;;;;12.98;8.68;;;2.00;96.10;;;;;;2073872;28;20022;-89